Time;durP1;ratioP1;P1;durP2;ratioP2;P2;SDS_P1;SDS_P2;PMS_P1;PMS_P2;Temp;Humidity;BMP_temperature;BMP_pressure;BME280_temperature;BME280_humidity;BME280_pressure;Samples;Min_cycle;Max_cycle;Signal;HPM_P1;HPM_P2
2022/07/15 00:00:42;;;;;;;1.67;1.10;;;14.90;99.90;;;;;;4994264;28;20187;-77
2022/07/15 00:03:07;;;;;;;1.07;0.90;;;15.00;99.90;;;;;;4994323;28;20207;-77
2022/07/15 00:05:33;;;;;;;1.33;1.00;;;15.10;99.90;;;;;;4994635;28;20183;-77
2022/07/15 00:08:00;;;;;;;1.47;1.00;;;15.00;99.90;;;;;;4978022;28;20180;-77
2022/07/15 00:10:27;;;;;;;1.27;1.10;;;14.90;99.90;;;;;;4994486;28;20182;-77
2022/07/15 00:12:58;;;;;;;1.27;1.13;;;14.80;99.90;;;;;;4993806;28;20196;-77
2022/07/15 00:15:29;;;;;;;2.27;1.33;;;14.80;99.90;;;;;;4994362;28;20271;-77
2022/07/15 00:17:57;;;;;;;3.47;1.30;;;14.60;99.90;;;;;;4999065;28;20193;-77
2022/07/15 00:20:23;;;;;;;2.13;1.10;;;14.50;99.90;;;;;;4997292;28;20566;-78
2022/07/15 00:22:49;;;;;;;1.10;1.00;;;14.60;99.90;;;;;;5013263;28;20217;-77
2022/07/15 00:25:16;;;;;;;1.10;1.00;;;14.50;99.90;;;;;;5013760;28;20637;-77
2022/07/15 00:27:56;;;;;;;1.40;1.30;;;14.50;99.90;;;;;;5013659;28;20182;-77
2022/07/15 00:30:23;;;;;;;2.30;1.10;;;14.30;99.90;;;;;;4981509;28;20247;-77
2022/07/15 00:33:08;;;;;;;1.40;1.30;;;14.40;99.90;;;;;;5013070;28;20279;-77
2022/07/15 00:35:35;;;;;;;1.20;1.00;;;14.50;99.90;;;;;;5013746;28;20186;-77
2022/07/15 00:38:03;;;;;;;1.63;1.20;;;14.70;99.90;;;;;;4996945;28;20179;-77
2022/07/15 00:40:28;;;;;;;2.17;1.10;;;14.60;99.90;;;;;;5013283;28;20179;-77
2022/07/15 00:42:54;;;;;;;1.97;1.20;;;14.70;99.90;;;;;;4980774;28;20206;-77
2022/07/15 00:45:23;;;;;;;3.33;1.17;;;14.70;99.90;;;;;;4980853;28;20175;-77
2022/07/15 00:47:52;;;;;;;1.30;1.20;;;14.30;99.90;;;;;;4980931;28;20262;-77
2022/07/15 00:50:19;;;;;;;1.60;1.10;;;14.10;99.90;;;;;;4997216;28;20175;-78
2022/07/15 00:52:50;;;;;;;1.93;1.10;;;14.20;99.90;;;;;;4996733;28;20674;-77
2022/07/15 00:55:16;;;;;;;1.50;1.20;;;14.30;99.90;;;;;;4996982;28;20178;-77
2022/07/15 00:57:44;;;;;;;1.10;1.10;;;14.20;99.90;;;;;;4996816;28;20183;-77
2022/07/15 01:00:11;;;;;;;1.63;1.23;;;14.10;99.90;;;;;;5012669;28;20266;-77
2022/07/15 01:02:40;;;;;;;1.40;1.13;;;14.20;99.90;;;;;;5011300;28;20199;-77
2022/07/15 01:05:10;;;;;;;1.43;1.00;;;14.30;99.90;;;;;;4996788;28;20175;-77
2022/07/15 01:07:36;;;;;;;1.90;1.20;;;14.30;99.90;;;;;;5012878;28;20538;-77
2022/07/15 01:10:02;;;;;;;1.77;1.47;;;14.30;99.90;;;;;;4996618;28;20182;-77
2022/07/15 01:12:28;;;;;;;1.10;1.00;;;14.20;99.90;;;;;;5012458;28;20202;-77
2022/07/15 01:14:55;;;;;;;1.57;1.30;;;14.20;99.90;;;;;;4980330;28;20599;-77
2022/07/15 01:17:21;;;;;;;1.70;1.27;;;14.10;99.90;;;;;;4995918;28;20179;-77
2022/07/15 01:19:46;;;;;;;1.97;1.20;;;14.10;99.90;;;;;;4977016;28;20231;-77
2022/07/15 01:22:12;;;;;;;3.37;1.20;;;13.90;99.90;;;;;;4976452;28;20215;-77
2022/07/15 01:24:38;;;;;;;1.33;1.23;;;14.00;99.90;;;;;;4976525;28;20673;-77
2022/07/15 01:27:03;;;;;;;1.47;1.20;;;14.00;99.90;;;;;;4976881;28;20196;-77
2022/07/15 01:29:29;;;;;;;1.37;1.10;;;14.10;99.90;;;;;;4976508;28;20274;-77
2022/07/15 01:31:55;;;;;;;2.47;1.00;;;14.20;99.90;;;;;;4976598;28;20225;-77
2022/07/15 01:34:31;;;;;;;2.53;1.30;;;14.10;99.90;;;;;;4976316;28;20187;-77
2022/07/15 01:36:57;;;;;;;1.87;1.03;;;14.00;99.90;;;;;;4992572;28;20163;-77
2022/07/15 01:39:23;;;;;;;1.53;1.10;;;14.00;99.90;;;;;;4976382;28;20184;-77
2022/07/15 01:41:48;;;;;;;2.03;1.10;;;13.80;99.90;;;;;;4976219;28;20208;-77
2022/07/15 01:44:14;;;;;;;1.30;1.20;;;13.70;99.90;;;;;;4992729;28;20266;-77
2022/07/15 01:46:40;;;;;;;1.63;1.10;;;13.80;99.90;;;;;;4976531;28;20663;-77
2022/07/15 01:51:50;;;;;;;2.13;1.20;;;13.70;99.90;;;;;;4992703;28;20257;-77
2022/07/15 01:54:16;;;;;;;2.50;1.13;;;13.60;99.90;;;;;;4992641;28;20279;-77
2022/07/15 01:56:42;;;;;;;2.30;1.03;;;13.70;99.90;;;;;;4992385;28;20184;-77
2022/07/15 01:59:08;;;;;;;1.00;1.00;;;13.60;99.90;;;;;;4976109;28;20183;-77
2022/07/15 02:01:34;;;;;;;2.13;1.20;;;13.50;99.90;;;;;;4976171;28;20290;-77
2022/07/15 02:04:00;;;;;;;1.20;1.10;;;13.80;99.90;;;;;;4975851;28;20553;-77
2022/07/15 02:06:25;;;;;;;1.73;1.20;;;13.90;99.90;;;;;;4976018;28;20654;-77
2022/07/15 02:08:51;;;;;;;1.43;1.20;;;14.00;99.90;;;;;;4976204;28;20559;-77
2022/07/15 02:11:17;;;;;;;1.20;1.10;;;14.00;99.90;;;;;;4976264;28;20665;-77
2022/07/15 02:13:43;;;;;;;1.80;1.20;;;13.80;99.90;;;;;;4975541;28;20191;-77
2022/07/15 02:16:09;;;;;;;2.53;1.17;;;13.80;99.90;;;;;;4976150;28;20245;-77
2022/07/15 02:18:34;;;;;;;1.20;1.10;;;13.80;99.90;;;;;;4986176;28;20237;-77
2022/07/15 02:21:02;;;;;;;1.83;1.57;;;13.60;99.90;;;;;;4979354;28;20179;-77
2022/07/15 02:23:29;;;;;;;2.53;1.17;;;13.70;99.90;;;;;;4979144;28;20655;-77
2022/07/15 02:25:55;;;;;;;1.93;1.40;;;13.70;99.90;;;;;;4995388;28;20179;-77
2022/07/15 02:28:21;;;;;;;1.30;1.10;;;13.80;99.90;;;;;;5011630;28;20174;-77
2022/07/15 02:30:46;;;;;;;1.80;1.40;;;13.90;99.90;;;;;;4995580;28;20189;-77
2022/07/15 02:33:24;;;;;;;3.07;1.20;;;14.00;99.90;;;;;;4994906;28;20203;-77
2022/07/15 02:35:50;;;;;;;1.10;1.00;;;14.00;99.90;;;;;;4978820;28;20182;-77
2022/07/15 02:38:17;;;;;;;1.70;1.07;;;13.90;99.90;;;;;;4995475;28;20189;-77
2022/07/15 02:40:43;;;;;;;2.10;1.13;;;13.90;99.90;;;;;;4995023;28;20249;-77
2022/07/15 02:43:10;;;;;;;3.43;1.20;;;13.70;99.90;;;;;;4995028;28;20305;-77
2022/07/15 02:45:36;;;;;;;1.70;1.20;;;13.70;99.90;;;;;;5011485;28;20701;-77
2022/07/15 02:48:03;;;;;;;1.70;1.20;;;13.70;99.90;;;;;;4995143;28;20638;-77
2022/07/15 02:50:29;;;;;;;2.50;1.30;;;13.80;99.90;;;;;;5011472;28;20175;-77
2022/07/15 02:52:55;;;;;;;1.87;1.20;;;13.80;99.90;;;;;;4978772;28;20207;-77
2022/07/15 02:55:21;;;;;;;1.40;1.20;;;13.90;99.90;;;;;;5011504;28;20179;-77
2022/07/15 02:57:47;;;;;;;2.23;1.27;;;13.80;99.90;;;;;;5011541;28;20232;-77
2022/07/15 03:00:17;;;;;;;2.87;1.40;;;13.80;99.90;;;;;;5011559;28;20232;-77
2022/07/15 03:02:44;;;;;;;1.97;1.30;;;13.80;99.90;;;;;;5010901;28;20280;-77
2022/07/15 03:05:11;;;;;;;1.90;1.13;;;13.70;99.90;;;;;;4995210;28;20179;-77
2022/07/15 03:07:37;;;;;;;2.60;1.30;;;13.60;99.90;;;;;;4995277;28;20183;-77
2022/07/15 03:10:05;;;;;;;3.27;1.40;;;13.50;99.90;;;;;;5011136;28;20186;-77
2022/07/15 03:12:31;;;;;;;2.23;1.30;;;13.40;99.90;;;;;;5011009;28;20199;-77
2022/07/15 03:14:57;;;;;;;3.87;1.47;;;13.40;99.90;;;;;;5011411;28;20179;-77
2022/07/15 03:17:22;;;;;;;1.47;1.37;;;13.40;99.90;;;;;;4994407;28;20187;-77
2022/07/15 03:19:48;;;;;;;3.47;1.50;;;13.40;99.90;;;;;;4975514;28;20180;-77
2022/07/15 03:22:14;;;;;;;2.07;1.50;;;13.30;99.90;;;;;;4992694;23;20209;-77
2022/07/15 03:24:39;;;;;;;3.17;1.70;;;13.30;99.90;;;;;;5011371;28;20175;-77
2022/07/15 03:27:05;;;;;;;2.13;1.40;;;13.30;99.90;;;;;;4998449;28;20180;-77
2022/07/15 03:29:31;;;;;;;3.33;1.70;;;13.30;99.90;;;;;;5014854;28;20178;-77
2022/07/15 03:31:56;;;;;;;1.53;1.43;;;13.20;99.90;;;;;;5014576;28;20171;-77
2022/07/15 03:34:31;;;;;;;1.67;1.50;;;13.20;99.90;;;;;;5014462;28;20179;-77
2022/07/15 03:36:59;;;;;;;2.80;1.50;;;13.10;99.90;;;;;;4982341;28;20163;-77
2022/07/15 03:39:25;;;;;;;1.60;1.50;;;12.90;99.90;;;;;;4982229;28;20193;-77
2022/07/15 03:41:51;;;;;;;4.03;1.93;;;12.70;99.90;;;;;;5015287;28;20195;-77
2022/07/15 03:44:17;;;;;;;1.93;1.70;;;12.10;99.90;;;;;;4997933;28;20201;-77
2022/07/15 03:46:46;;;;;;;2.63;1.63;;;12.00;99.90;;;;;;4998339;28;20209;-77
2022/07/15 03:49:13;;;;;;;3.80;1.80;;;12.10;99.90;;;;;;4998596;28;20320;-77
2022/07/15 03:51:39;;;;;;;3.27;1.90;;;12.20;99.90;;;;;;5014135;28;20197;-77
2022/07/15 03:54:05;;;;;;;3.23;1.70;;;12.10;99.90;;;;;;5013978;28;20597;-77
2022/07/15 03:56:31;;;;;;;1.90;1.73;;;12.30;99.90;;;;;;4998060;28;20183;-77
2022/07/15 03:58:56;;;;;;;1.47;1.37;;;12.40;99.90;;;;;;4997760;28;20186;-77
2022/07/15 04:01:22;;;;;;;2.23;1.40;;;12.30;99.90;;;;;;5014229;28;20227;-77
2022/07/15 04:03:50;;;;;;;2.43;1.47;;;12.30;99.90;;;;;;5013995;28;20767;-77
2022/07/15 04:06:16;;;;;;;1.80;1.50;;;12.20;99.90;;;;;;4997540;28;20190;-77
2022/07/15 04:08:42;;;;;;;1.70;1.40;;;12.30;99.90;;;;;;4981399;28;20560;-77
2022/07/15 04:11:08;;;;;;;1.97;1.37;;;12.30;99.90;;;;;;5013875;28;20237;-77
2022/07/15 04:13:34;;;;;;;2.70;1.60;;;12.30;99.90;;;;;;5014786;28;20285;-77
2022/07/15 04:16:00;;;;;;;3.23;1.50;;;12.30;99.90;;;;;;5014015;28;20258;-77
2022/07/15 04:18:26;;;;;;;2.03;1.50;;;12.40;99.90;;;;;;4997400;28;20186;-77
2022/07/15 04:20:51;;;;;;;1.80;1.23;;;12.50;99.90;;;;;;4998608;28;20225;-77
2022/07/15 04:23:17;;;;;;;2.50;1.43;;;12.50;99.90;;;;;;4997082;28;20214;-77
2022/07/15 04:25:43;;;;;;;2.17;1.47;;;12.50;99.90;;;;;;4981447;28;20186;-77
2022/07/15 04:28:09;;;;;;;2.93;1.37;;;12.40;99.90;;;;;;5013461;28;20175;-77
2022/07/15 04:30:34;;;;;;;2.47;1.43;;;12.30;99.90;;;;;;5013304;28;20178;-77
2022/07/15 04:33:02;;;;;;;5.00;1.90;;;12.40;99.90;;;;;;5013175;28;20285;-77
2022/07/15 04:35:28;;;;;;;6.67;1.70;;;12.50;99.90;;;;;;4980886;28;20179;-77
2022/07/15 04:37:53;;;;;;;3.17;1.77;;;12.40;99.90;;;;;;5013406;28;20226;-77
2022/07/15 04:40:19;;;;;;;2.23;1.60;;;12.30;99.90;;;;;;4997188;28;20233;-77
2022/07/15 04:42:45;;;;;;;3.50;1.70;;;12.20;99.90;;;;;;4996798;28;20701;-78
2022/07/15 04:45:10;;;;;;;1.63;1.37;;;12.30;99.90;;;;;;4997091;28;20245;-77
2022/07/15 04:47:36;;;;;;;4.17;1.53;;;12.30;99.90;;;;;;4996847;28;20186;-77
2022/07/15 04:52:48;;;;;;;2.10;1.30;;;12.50;99.90;;;;;;5014190;28;20256;-77
2022/07/15 04:55:14;;;;;;;3.60;1.53;;;12.70;99.90;;;;;;5013302;28;20179;-76
2022/07/15 04:57:43;;;;;;;1.50;1.40;;;12.80;99.90;;;;;;5012980;28;20182;-77
2022/07/15 05:00:09;;;;;;;2.50;1.50;;;12.80;99.90;;;;;;4997078;28;20175;-76
2022/07/15 05:02:35;;;;;;;1.63;1.50;;;13.00;99.90;;;;;;5012436;28;20232;-77
2022/07/15 05:05:01;;;;;;;2.43;1.50;;;13.10;99.90;;;;;;5012824;28;20552;-77
2022/07/15 05:07:26;;;;;;;1.97;1.40;;;13.10;99.90;;;;;;5012842;28;20233;-76
2022/07/15 05:09:52;;;;;;;3.17;1.33;;;13.20;99.90;;;;;;5012557;28;20171;-76
2022/07/15 05:12:18;;;;;;;2.33;1.47;;;13.30;99.90;;;;;;4996446;28;20252;-77
2022/07/15 05:14:44;;;;;;;2.20;1.50;;;13.40;99.90;;;;;;5012932;28;20197;-77
2022/07/15 05:17:09;;;;;;;1.40;1.20;;;13.40;99.90;;;;;;4981384;28;20261;-78
2022/07/15 05:19:35;;;;;;;1.57;1.13;;;13.60;99.90;;;;;;4994543;28;20186;-77
2022/07/15 05:22:01;;;;;;;1.73;1.20;;;13.60;99.90;;;;;;4976586;28;20939;-76
2022/07/15 05:24:27;;;;;;;1.43;1.10;;;13.70;99.90;;;;;;4976976;28;20618;-76
2022/07/15 05:26:52;;;;;;;1.60;1.10;;;13.70;99.90;;;;;;4977043;28;20218;-76
2022/07/15 05:29:21;;;;;;;2.13;1.37;;;13.80;99.90;;;;;;4993118;28;20290;-76
2022/07/15 05:31:48;;;;;;;3.67;1.47;;;13.80;99.90;;;;;;4992896;28;20180;-77
2022/07/15 05:34:15;;;;;;;3.17;1.30;;;13.80;99.90;;;;;;4993016;28;20203;-77
2022/07/15 05:36:40;;;;;;;1.53;1.23;;;13.90;99.90;;;;;;4976886;28;20187;-77
2022/07/15 05:39:06;;;;;;;1.60;1.30;;;14.00;99.90;;;;;;4976581;28;20736;-77
2022/07/15 05:41:32;;;;;;;1.10;1.00;;;14.00;99.90;;;;;;4992729;28;20184;-76
2022/07/15 05:43:59;;;;;;;1.57;1.40;;;14.10;99.90;;;;;;4992579;28;20200;-76
2022/07/15 05:46:24;;;;;;;2.73;1.43;;;14.20;99.90;;;;;;4992462;28;20182;-75
2022/07/15 05:48:50;;;;;;;3.20;1.50;;;14.30;99.90;;;;;;4992052;28;20172;-76
2022/07/15 05:51:16;;;;;;;2.47;1.40;;;14.50;99.90;;;;;;4960312;28;20677;-75
2022/07/15 05:53:42;;;;;;;2.80;1.80;;;14.60;99.90;;;;;;4992359;28;20200;-75
2022/07/15 05:56:08;;;;;;;3.30;1.40;;;14.70;99.90;;;;;;4960465;28;20187;-75
2022/07/15 05:58:33;;;;;;;3.57;1.40;;;14.90;99.90;;;;;;4992690;28;20191;-76
2022/07/15 06:00:59;;;;;;;2.13;1.50;;;15.00;99.90;;;;;;4992436;28;20191;-76
2022/07/15 06:03:25;;;;;;;3.23;1.83;;;15.20;99.90;;;;;;4975945;28;20276;-75
2022/07/15 06:05:51;;;;;;;2.67;1.60;;;15.30;99.90;;;;;;4976327;28;20262;-75
2022/07/15 06:08:16;;;;;;;3.20;1.70;;;15.30;99.90;;;;;;4992592;28;20182;-76
2022/07/15 06:10:43;;;;;;;3.33;2.03;;;15.40;99.90;;;;;;4976303;28;20178;-76
2022/07/15 06:13:08;;;;;;;2.63;1.73;;;15.50;99.90;;;;;;4976511;28;20693;-75
2022/07/15 06:15:34;;;;;;;3.33;1.70;;;15.60;99.90;;;;;;4992418;28;20239;-75
2022/07/15 06:18:00;;;;;;;3.37;1.90;;;15.60;99.90;;;;;;4976337;28;20184;-76
2022/07/15 06:20:25;;;;;;;2.83;2.13;;;15.70;99.90;;;;;;4960341;28;20175;-76
2022/07/15 06:22:51;;;;;;;2.40;1.87;;;15.80;99.90;;;;;;4976046;28;20277;-76
2022/07/15 06:25:17;;;;;;;3.07;1.60;;;15.90;99.90;;;;;;4976066;28;20187;-75
2022/07/15 06:27:43;;;;;;;2.73;1.83;;;15.90;99.90;;;;;;4976153;28;20176;-76
2022/07/15 06:30:09;;;;;;;3.43;1.93;;;16.00;99.90;;;;;;4976117;28;20179;-76
2022/07/15 06:32:35;;;;;;;4.90;1.80;;;16.10;99.90;;;;;;5008556;28;20199;-76
2022/07/15 06:35:04;;;;;;;4.00;2.00;;;16.10;99.90;;;;;;5008403;28;20182;-76
2022/07/15 06:37:29;;;;;;;3.37;2.00;;;16.00;99.90;;;;;;4992629;28;20250;-76
2022/07/15 06:39:55;;;;;;;4.73;2.00;;;16.20;99.90;;;;;;4976360;28;20184;-76
2022/07/15 06:42:22;;;;;;;3.27;1.80;;;16.10;99.90;;;;;;4959643;28;20216;-76
2022/07/15 06:44:48;;;;;;;2.13;1.60;;;16.10;99.90;;;;;;5008350;28;20176;-78
2022/07/15 06:47:13;;;;;;;2.47;1.70;;;16.30;99.90;;;;;;5008576;28;20230;-75
2022/07/15 06:49:39;;;;;;;2.60;1.60;;;16.50;99.90;;;;;;5008244;28;20171;-75
2022/07/15 06:52:05;;;;;;;1.80;1.70;;;16.70;99.90;;;;;;4991947;28;20237;-76
2022/07/15 06:54:31;;;;;;;4.53;1.80;;;16.70;99.90;;;;;;4992880;28;20176;-76
2022/07/15 06:56:59;;;;;;;3.40;1.87;;;16.60;99.90;;;;;;4991872;28;20267;-75
2022/07/15 06:59:25;;;;;;;2.60;1.57;;;16.50;99.90;;;;;;5005296;28;20179;-76
2022/07/15 07:01:52;;;;;;;2.20;1.80;;;16.80;99.90;;;;;;4999215;28;20659;-76
2022/07/15 07:04:17;;;;;;;2.40;1.73;;;16.90;99.90;;;;;;4999309;28;20190;-76
2022/07/15 07:06:44;;;;;;;2.90;1.60;;;17.00;99.90;;;;;;4998852;28;20179;-76
2022/07/15 07:09:10;;;;;;;4.27;1.63;;;17.00;99.90;;;;;;4998969;28;20179;-76
2022/07/15 07:11:35;;;;;;;2.90;1.50;;;17.10;99.90;;;;;;5015457;28;20199;-76
2022/07/15 07:14:01;;;;;;;2.77;1.60;;;16.90;99.90;;;;;;4998006;28;20249;-76
2022/07/15 07:16:27;;;;;;;1.87;1.60;;;16.90;99.90;;;;;;4998194;28;20249;-77
2022/07/15 07:18:52;;;;;;;2.67;1.53;;;17.10;99.90;;;;;;5014609;28;20175;-76
2022/07/15 07:21:19;;;;;;;3.90;1.60;;;17.40;99.90;;;;;;5014480;28;20171;-76
2022/07/15 07:23:45;;;;;;;3.03;1.50;;;17.50;99.90;;;;;;4997950;28;20238;-76
2022/07/15 07:26:12;;;;;;;3.97;1.53;;;17.40;99.90;;;;;;5014317;28;20171;-76
2022/07/15 07:28:40;;;;;;;0.90;0.90;;;17.50;99.90;;;;;;4998157;28;20559;-76
2022/07/15 07:31:06;;;;;;;1.30;1.10;;;17.50;99.90;;;;;;5015391;28;20560;-77
2022/07/15 07:33:32;;;;;;;0.70;0.70;;;17.60;99.90;;;;;;5014053;28;20579;-77
2022/07/15 07:35:57;;;;;;;1.10;0.73;;;17.60;99.90;;;;;;4997838;28;20186;-77
2022/07/15 07:38:23;;;;;;;0.80;0.70;;;17.60;99.90;;;;;;5014467;28;20299;-77
2022/07/15 07:40:49;;;;;;;0.60;0.60;;;17.60;99.90;;;;;;4997902;28;20218;-77
2022/07/15 07:43:15;;;;;;;3.40;0.80;;;17.70;99.90;;;;;;4997782;28;20218;-77
2022/07/15 07:45:41;;;;;;;2.23;0.70;;;17.80;99.90;;;;;;4997913;28;20624;-77
2022/07/15 07:48:07;;;;;;;0.63;0.53;;;17.70;99.90;;;;;;4997791;28;20207;-77
2022/07/15 07:50:33;;;;;;;3.43;0.83;;;17.80;99.90;;;;;;5013928;28;20274;-77
2022/07/15 07:52:58;;;;;;;6.07;1.07;;;17.80;99.90;;;;;;4998298;28;20203;-76
2022/07/15 07:55:24;;;;;;;5.13;1.30;;;17.80;99.90;;;;;;4998155;28;20179;-77
2022/07/15 07:57:54;;;;;;;1.23;0.83;;;17.80;99.90;;;;;;4997899;28;20253;-76
2022/07/15 08:00:22;;;;;;;1.40;0.77;;;18.20;99.90;;;;;;5014573;28;20231;-76
2022/07/15 08:02:48;;;;;;;0.70;0.70;;;18.40;99.90;;;;;;5013321;28;20221;-77
2022/07/15 08:05:15;;;;;;;0.60;0.60;;;18.30;99.90;;;;;;4996792;28;20175;-76
2022/07/15 08:07:41;;;;;;;2.77;1.20;;;18.30;99.90;;;;;;5013669;28;20194;-77
2022/07/15 08:10:09;;;;;;;2.87;1.30;;;18.30;99.90;;;;;;5013522;28;20175;-76
2022/07/15 08:12:36;;;;;;;1.20;0.90;;;18.20;99.90;;;;;;4996678;28;20199;-76
2022/07/15 08:15:02;;;;;;;2.67;1.20;;;18.00;99.90;;;;;;5013375;28;20201;-76
2022/07/15 08:17:28;;;;;;;3.30;1.43;;;18.10;99.90;;;;;;5013364;28;20211;-76
2022/07/15 08:19:54;;;;;;;1.70;1.30;;;18.10;99.90;;;;;;5013235;28;20617;-76
2022/07/15 08:22:20;;;;;;;1.83;1.20;;;18.10;99.90;;;;;;4996755;28;20219;-77
2022/07/15 08:24:45;;;;;;;2.03;1.23;;;18.20;99.90;;;;;;4996946;28;20179;-76
2022/07/15 08:27:11;;;;;;;4.47;1.50;;;18.00;99.90;;;;;;4997137;28;20175;-76
2022/07/15 08:29:38;;;;;;;4.40;1.67;;;18.00;99.90;;;;;;5013275;28;20206;-76
2022/07/15 08:32:04;;;;;;;2.17;1.50;;;18.00;99.90;;;;;;5013085;28;20262;-75
2022/07/15 08:34:30;;;;;;;4.20;1.60;;;17.90;99.90;;;;;;5013256;28;20226;-76
2022/07/15 08:36:55;;;;;;;2.63;1.30;;;17.90;99.90;;;;;;4996667;28;20178;-76
2022/07/15 08:39:21;;;;;;;2.03;1.47;;;17.90;99.90;;;;;;4996727;28;20274;-76
2022/07/15 08:41:47;;;;;;;3.53;1.50;;;17.80;99.90;;;;;;4996443;28;20179;-76
2022/07/15 08:44:12;;;;;;;4.70;1.60;;;17.90;99.90;;;;;;5012746;28;20191;-77
2022/07/15 08:46:44;;;;;;;1.93;1.50;;;18.00;99.90;;;;;;4996520;28;20635;-76
2022/07/15 08:49:16;;;;;;;3.37;1.60;;;18.10;99.90;;;;;;5012870;28;20179;-76
2022/07/15 08:51:44;;;;;;;3.60;1.57;;;18.20;99.90;;;;;;5012796;28;20167;-76
2022/07/15 08:54:11;;;;;;;2.43;1.70;;;18.30;99.90;;;;;;4996649;28;20645;-76
2022/07/15 08:56:37;;;;;;;1.20;1.10;;;18.60;99.90;;;;;;5012738;28;20172;-76
2022/07/15 08:59:04;;;;;;;1.93;1.10;;;18.70;99.90;;;;;;5012485;28;20229;-76
2022/07/15 09:01:31;;;;;;;2.77;1.53;;;18.80;99.90;;;;;;4996545;28;20175;-76
2022/07/15 09:03:57;;;;;;;2.00;1.37;;;18.90;99.90;;;;;;4996237;28;20211;-81
2022/07/15 09:06:40;;;;;;;145.50;21.60;;;19.00;99.90;;;;;;5013159;28;20225;-76
2022/07/15 09:09:23;;;;;;;2.93;2.00;;;19.30;99.90;;;;;;5013162;28;20522;-76
2022/07/15 09:11:56;;;;;;;3.07;1.47;;;19.40;99.90;;;;;;5012659;28;20173;-76
2022/07/15 09:14:22;;;;;;;5.20;1.57;;;19.40;99.90;;;;;;5013959;28;20174;-76
2022/07/15 09:16:47;;;;;;;1.83;1.57;;;19.30;99.90;;;;;;4996264;28;20178;-76
2022/07/15 09:19:13;;;;;;;2.80;1.30;;;19.40;99.90;;;;;;4996368;28;20186;-76
2022/07/15 09:21:42;;;;;;;1.75;1.30;;;19.30;99.90;;;;;;4996039;28;20188;-76
2022/07/15 09:24:18;;;;;;;2.33;1.40;;;19.30;99.90;;;;;;5035649;23;20989;-78
2022/07/15 09:26:45;;;;;;;1.53;1.20;;;19.10;99.90;;;;;;5013161;28;20183;-78
2022/07/15 09:35:02;;;;;;;3.27;1.30;;;18.70;99.90;;;;;;4995807;28;20218;-79
2022/07/15 09:37:28;;;;;;;1.80;1.10;;;18.70;99.90;;;;;;5011779;28;20186;-78
2022/07/15 09:39:56;;;;;;;2.27;1.53;;;19.00;99.90;;;;;;5012199;28;20234;-78
2022/07/15 09:42:22;;;;;;;1.83;1.20;;;19.20;99.90;;;;;;4995237;28;20287;-78
2022/07/15 09:44:47;;;;;;;2.07;1.30;;;19.40;99.90;;;;;;4995435;28;20215;-78
2022/07/15 09:47:18;;;;;;;2.53;1.13;;;19.50;99.90;;;;;;4996834;28;20231;-79
2022/07/15 09:49:44;;;;;;;1.40;1.30;;;19.70;99.90;;;;;;4996189;28;20278;-78
2022/07/15 09:52:13;;;;;;;2.10;1.40;;;19.80;99.90;;;;;;5012164;28;20179;-78
2022/07/15 09:54:47;;;;;;;2.90;1.30;;;20.20;99.90;;;;;;5012516;28;20677;-78
2022/07/15 09:57:17;;;;;;;2.57;1.40;;;20.30;99.90;;;;;;4997294;28;20251;-78
2022/07/15 09:59:48;;;;;;;17.07;2.47;;;20.20;99.90;;;;;;5014565;28;20183;-79
2022/07/15 10:02:14;;;;;;;2.13;1.57;;;20.00;99.90;;;;;;5006719;28;20227;-79
2022/07/15 10:04:40;;;;;;;2.27;1.50;;;19.80;99.90;;;;;;5021868;28;20176;-79
2022/07/15 10:07:06;;;;;;;1.33;1.20;;;19.80;99.90;;;;;;5009192;28;20179;-78
2022/07/15 10:09:35;;;;;;;3.27;1.50;;;19.80;99.90;;;;;;4992855;28;20179;-79
2022/07/15 10:12:18;;;;;;;2.63;1.50;;;19.90;99.90;;;;;;5008691;28;20182;-80
2022/07/15 10:14:55;;;;;;;2.33;1.47;;;20.00;99.90;;;;;;4992521;28;20194;-79
2022/07/15 10:17:36;;;;;;;2.73;1.40;;;20.50;99.90;;;;;;5009110;28;20212;-81
2022/07/15 10:20:13;;;;;;;2.15;1.30;;;21.20;99.90;;;;;;5008746;28;20229;-81
2022/07/15 10:23:12;;;;;;;2.63;2.00;;;21.40;99.90;;;;;;5008060;28;20257;-80
2022/07/15 10:26:17;;;;;;;3.23;1.40;;;20.60;99.90;;;;;;5008891;28;20176;-80
2022/07/15 10:28:55;;;;;;;2.03;1.50;;;20.40;99.90;;;;;;5008491;28;20616;-81
2022/07/15 10:31:26;;;;;;;3.30;1.60;;;20.30;99.90;;;;;;5008462;28;20616;-80
2022/07/15 10:34:04;;;;;;;2.88;1.40;;;20.30;99.90;;;;;;5008838;28;20279;-80
2022/07/15 10:36:49;;;;;;;4.37;1.73;;;20.20;99.90;;;;;;5009402;28;20186;-80
2022/07/15 10:39:24;;;;;;;3.17;1.50;;;20.00;99.90;;;;;;5017925;28;20688;-80
2022/07/15 10:42:04;;;;;;;2.53;1.20;;;19.80;99.90;;;;;;4983136;28;20658;-81
2022/07/15 10:44:31;;;;;;;2.27;1.43;;;19.90;99.90;;;;;;5004275;28;20234;-80
2022/07/15 10:47:12;;;;;;;2.53;1.40;;;19.90;99.90;;;;;;5015995;28;20258;-81
2022/07/15 10:49:39;;;;;;;4.20;1.53;;;20.10;99.90;;;;;;5011957;28;20164;-81
2022/07/15 10:52:16;;;;;;;3.75;1.80;;;20.50;99.90;;;;;;5012079;28;20195;-81
2022/07/15 10:54:43;;;;;;;1.80;1.30;;;20.30;99.90;;;;;;4979642;28;20270;-81
2022/07/15 10:57:09;;;;;;;1.30;1.20;;;20.00;99.90;;;;;;5013152;28;20591;-81
2022/07/15 10:59:40;;;;;;;1.27;1.17;;;19.80;99.90;;;;;;4983192;28;20746;-81
2022/07/15 11:02:06;;;;;;;1.40;1.20;;;19.70;99.90;;;;;;4981319;28;20218;-80
2022/07/15 11:04:33;;;;;;;1.93;1.27;;;19.60;99.90;;;;;;5013174;28;20255;-81
2022/07/15 11:07:01;;;;;;;3.30;1.20;;;19.60;99.90;;;;;;4998320;28;20175;-81
2022/07/15 11:09:57;;;;;;;1.63;1.40;;;19.60;99.90;;;;;;5014645;28;20179;-81
2022/07/15 11:12:29;;;;;;;1.40;1.30;;;19.90;99.90;;;;;;5014140;28;20266;-81
2022/07/15 11:14:56;;;;;;;3.40;1.40;;;20.10;99.90;;;;;;5015459;28;20649;-82
2022/07/15 11:17:25;;;;;;;1.30;1.10;;;20.40;99.90;;;;;;5014384;28;20231;-80
2022/07/15 11:19:53;;;;;;;3.10;1.33;;;21.20;99.90;;;;;;5013699;28;20180;-81
2022/07/15 11:22:20;;;;;;;1.50;0.90;;;22.00;99.90;;;;;;4980525;28;20690;-81
2022/07/15 11:24:47;;;;;;;1.30;1.20;;;22.30;99.90;;;;;;4982322;28;20180;-81
2022/07/15 11:27:13;;;;;;;2.00;1.50;;;22.70;98.80;;;;;;4996675;28;20705;-78
2022/07/15 11:29:49;;;;;;;1.83;1.52;;;22.50;97.50;;;;;;5008974;28;20176;-79
2022/07/15 11:32:17;;;;;;;1.30;1.20;;;22.10;95.90;;;;;;5007902;28;20179;-79
2022/07/15 11:34:46;;;;;;;2.20;1.38;;;22.40;96.00;;;;;;5007974;28;20171;-78
2022/07/15 11:37:18;;;;;;;1.40;1.30;;;22.40;96.00;;;;;;4991758;28;20191;-78
2022/07/15 11:39:48;;;;;;;2.40;1.40;;;22.60;95.40;;;;;;4991673;28;20180;-78
2022/07/15 11:45:09;;;;;;;1.30;1.20;;;22.70;94.00;;;;;;4994279;28;20199;-79
2022/07/15 11:47:35;;;;;;;1.15;1.05;;;23.00;95.40;;;;;;4979728;28;20176;-79
2022/07/15 11:50:04;;;;;;;2.25;1.50;;;23.10;92.10;;;;;;5012566;28;20180;-79
2022/07/15 11:52:30;;;;;;;1.52;1.27;;;23.20;90.80;;;;;;4995962;28;20199;-79
2022/07/15 11:54:56;;;;;;;4.03;1.40;;;23.00;87.70;;;;;;5013357;28;20183;-79
2022/07/15 11:57:23;;;;;;;2.47;1.23;;;22.50;91.20;;;;;;4996202;28;20662;-80
2022/07/15 11:59:53;;;;;;;3.38;1.45;;;22.40;93.90;;;;;;5012719;28;20175;-80
2022/07/15 12:02:22;;;;;;;3.08;1.27;;;22.50;94.20;;;;;;4996064;28;20204;-80
2022/07/15 12:04:48;;;;;;;2.72;1.10;;;22.90;91.30;;;;;;5012254;28;20176;-80
2022/07/15 12:07:14;;;;;;;1.10;1.00;;;23.20;91.10;;;;;;4979838;28;20182;-80
2022/07/15 12:09:43;;;;;;;1.88;1.23;;;23.40;89.20;;;;;;4995989;28;20178;-80
2022/07/15 12:12:12;;;;;;;2.38;1.35;;;23.40;86.20;;;;;;5012285;28;20176;-80
2022/07/15 12:14:38;;;;;;;1.73;1.23;;;23.30;88.60;;;;;;5011449;28;20175;-79
2022/07/15 12:17:05;;;;;;;2.55;1.23;;;22.80;90.40;;;;;;4995116;28;20274;-79
2022/07/15 12:19:33;;;;;;;2.47;1.15;;;22.80;89.80;;;;;;4995108;28;20182;-80
2022/07/15 12:22:06;;;;;;;1.00;1.00;;;22.80;90.10;;;;;;4994624;28;20270;-79
2022/07/15 12:24:44;;;;;;;3.50;1.10;;;22.70;90.80;;;;;;5010267;28;20245;-79
2022/07/15 12:27:11;;;;;;;1.00;0.90;;;23.10;91.50;;;;;;4994556;28;20266;-79
2022/07/15 12:29:37;;;;;;;1.65;1.33;;;23.10;89.70;;;;;;4978498;28;20237;-79
2022/07/15 12:32:08;;;;;;;2.88;1.38;;;23.40;88.90;;;;;;5011189;28;20266;-78
2022/07/15 12:34:46;;;;;;;1.73;0.90;;;23.20;87.40;;;;;;5010142;28;20196;-79
2022/07/15 12:37:14;;;;;;;71.53;35.35;;;23.10;90.00;;;;;;5010593;28;20262;-79
2022/07/15 12:39:58;;;;;;;4.00;1.70;;;22.80;89.30;;;;;;5011136;28;20202;-79
2022/07/15 12:42:31;;;;;;;8.57;2.30;;;23.20;87.80;;;;;;4995146;28;20195;-79
2022/07/15 12:45:09;;;;;;;2.88;1.80;;;23.10;89.00;;;;;;4977624;28;20576;-79
2022/07/15 12:47:55;;;;;;;160.98;14.93;;;23.00;90.30;;;;;;5011878;28;20167;-81
2022/07/15 12:50:21;;;;;;;2.10;1.67;;;22.90;87.60;;;;;;4984405;28;20184;-81
2022/07/15 12:52:47;;;;;;;2.10;1.50;;;22.70;90.20;;;;;;4998743;28;20294;-80
2022/07/15 12:55:20;;;;;;;4.50;1.80;;;22.90;88.50;;;;;;4985155;28;20267;-80
2022/07/15 12:57:47;;;;;;;2.53;1.60;;;23.60;85.40;;;;;;5024530;28;20183;-81
2022/07/15 13:00:15;;;;;;;2.45;1.40;;;24.00;86.10;;;;;;5018423;28;20175;-81
2022/07/15 13:03:00;;;;;;;2.60;1.65;;;24.00;85.00;;;;;;5011159;28;20215;-81